Nearby METAR Reports

 

EGEO - Oban, United Kingdom
Distance from station: SSW 18mi, 30km
Updated: 03/06/2020 12:50
NOT Current
Few Clouds
Few Clouds
 Wind from N
Wind: N 18 mph , 30 km/h
Temperature: 13°C
Dew Point: 4°C
Humidity: 55%
Barometer: 1017 hPa
Clouds: Few Clouds
Visibility: 6 miles , 10 km
Cloud details: Few Clouds 1372 m
2020/06/03 11:50 EGEO 031150Z 35016KT 9999 FEW045 13/04 Q1017
EGPU - Tiree, United Kingdom
Distance from station: WSW 64mi, 103km
Updated: 04/06/2020 01:20
Mostly cloudy
Mostly cloudy
 Wind from NNW
Wind: NNW 9 mph , 15 km/h
Temperature: 10°C
Wind Chill: 8°C
Dew Point: 8°C
Humidity: 88%
Barometer: 1012 hPa
Clouds: Mostly cloudy
Visibility: 6 miles , 10 km
Cloud details: Few Clouds 366 m
Mostly cloudy 732 m
2020/06/04 00:20 EGPU 040020Z AUTO 33008KT 9999 FEW012/// BKN024/// 10/08 Q1012
EGPF - Glasgow, United Kingdom
Distance from station: SSE 66mi, 107km
Updated: 04/06/2020 01:50
Clear
Clear
 Wind from NE
Wind: NE 5 mph , 7 km/h
Temperature: 9°C
Wind Chill: 8°C
Dew Point: 7°C
Humidity: 87%
Barometer: 1010 hPa
Clouds: Clear
Visibility: 6 miles , 10 km
2020/06/04 00:50 EGPF 040050Z AUTO 04004KT 9999 NCD 09/07 Q1010
 
EGPE - Inverness, United Kingdom
Distance from station: NE 71mi, 114km
Updated: 04/06/2020 01:50
Clear
Clear
 Wind from W
Wind: W 5 mph , 7 km/h
Temperature: 9°C
Wind Chill: 8°C
Dew Point: 4°C
Humidity: 71%
Barometer: 1010 hPa
Clouds: Clear
Visibility: 6 miles , 10 km
2020/06/04 00:50 EGPE 040050Z AUTO 27004KT 9999 NCD 09/04 Q1010
EGPI - Islay/Port Ellen, United Kingdom
Distance from station: SSW 81mi, 131km
Updated: 04/06/2020 01:20
Clear
Clear
 Wind from NNW
Wind: NNW 12 mph , 19 km/h
Temperature: 9°C
Wind Chill: 6°C
Dew Point: 6°C
Humidity: 82%
Barometer: 1012 hPa
Clouds: Clear
Visibility: 6 miles , 10 km
2020/06/04 00:20 EGPI 040020Z AUTO 33010KT 9999 NCD 09/06 Q1012
EGPN - Dundee/Riverside, United Kingdom
Distance from station: E 86mi, 138km
Updated: 03/06/2020 20:20
NOT Current
Partly cloudy
Partly cloudy
 Wind from NE
Wind: NE 8 mph , 13 km/h
Temperature: 12°C
Dew Point: 5°C
Humidity: 63%
Barometer: 1013 hPa
Clouds: Partly cloudy
Visibility: 6 miles , 10 km
Cloud details: Partly cloudy 1219 m
2020/06/03 19:20 EGPN 031920Z 05007KT 010V080 9999 SCT040 12/05 Q1013
 
EGPK - Prestwick, United Kingdom
Distance from station: SSE 88mi, 141km
Updated: 04/06/2020 01:50
Partly cloudy
Partly cloudy
 Wind from NNW
Wind: NNW 8 mph , 13 km/h
Temperature: 10°C
Wind Chill: 8°C
Dew Point: 6°C
Humidity: 76%
Barometer: 1010 hPa
Clouds: Partly cloudy
Visibility: 6 miles , 10 km
Cloud details: Partly cloudy 1463 m
2020/06/04 00:50 EGPK 040050Z 33007KT 9999 SCT048 10/06 Q1010
EGPH - Edinburgh, United Kingdom
Distance from station: SE 89mi, 143km
Updated: 04/06/2020 01:50
Partly cloudy
Partly cloudy
 Wind from WSW
Wind: WSW 3 mph , 6 km/h
Temperature: 7°C
Dew Point: 6°C
Humidity: 93%
Barometer: 1010 hPa
Clouds: Partly cloudy
Visibility: 6 miles , 10 km
Cloud details: Partly cloudy 762 m
2020/06/04 00:50 EGPH 040050Z 25003KT 9999 SCT025 07/06 Q1010
EGQK - RAF Kinloss, United Kingdom
Distance from station: NE 90mi, 144km
Updated: 04/06/2020 00:50
Mostly cloudy
Mostly cloudy
 Wind from WNW
Wind: WNW 9 mph , 15 km/h
Temperature: 9°C
Wind Chill: 7°C
Dew Point: 4°C
Humidity: 71%
Barometer: 1010 hPa
Clouds: Mostly cloudy
Visibility: 6 miles , 10 km
Cloud details: Few Clouds 1524 m
Mostly cloudy 4267 m
2020/06/03 23:50 EGQK 032350Z AUTO 30008KT 9999 FEW050/// BKN140/// 09/04 Q1010
 
EGEC - Campbeltown, United Kingdom
Distance from station: S 90mi, 145km
Updated: 03/06/2020 09:20
NOT Current
Partly cloudy
Partly cloudy
 Wind from N
Wind: N 15 mph , 24 km/h
Temperature: 11°C
Dew Point: 6°C
Humidity: 72%
Barometer: 1017 hPa
Clouds: Partly cloudy
Visibility: 6 miles , 10 km
Cloud details: Partly cloudy 945 m
2020/06/03 08:20 EGEC 030820Z 35013KT 9999 SCT031 11/06 Q1017
EGQA - Tain Range, United Kingdom
Distance from station: NNE 91mi, 146km
Updated: 21/05/2020 19:50
NOT Current
Few Clouds
Few Clouds
 Wind from ENE
Wind: ENE 8 mph , 13 km/h
Clouds: Few Clouds
Visibility: 6 miles , 10 km
Cloud details: Few Clouds 914 m
2020/05/21 18:50 EGQA 211850Z 06007KT 9999 FEW030 16/// Q1016 RMK BLU
EGQL - RAF Leuchars, United Kingdom
Distance from station: ESE 93mi, 149km
Updated: 04/06/2020 01:50
Clear
Clear
 Wind from SW
Wind: SW 2 mph , 4 km/h
Temperature: 6°C
Dew Point: 4°C
Humidity: 87%
Barometer: 1009 hPa
Summary: Clear
Visibility: greater than 7 miles , 10 km
2020/06/04 00:50 EGQL 040050Z 23002KT CAVOK 06/04 Q1009 BLU
 
EGPL - Benbecula, United Kingdom
Distance from station: WNW 96mi, 154km
Updated: 04/06/2020 01:50
Drizzle, Overcast
Drizzle, Overcast
 Wind from WNW
Wind: WNW 15 mph , 24 km/h
Temperature: 10°C
Wind Chill: 7°C
Dew Point: 9°C
Humidity: 94%
Barometer: 1010 hPa
Summary: Drizzle
Clouds: Overcast
Visibility: 2 miles , 3 km
Cloud details: Mostly cloudy 122 m
Overcast 914 m
2020/06/04 00:50 EGPL 040050Z AUTO 30013KT 2600 DZ BKN004/// OVC030/// 10/09 Q1010 RERA
EGQS - RAF Lossiemouth, United Kingdom
Distance from station: NE 99mi, 160km
Updated: 04/06/2020 01:50
Mostly cloudy
Mostly cloudy
 Wind from NW
Wind: NW 10 mph , 17 km/h
Temperature: 8°C
Wind Chill: 5°C
Dew Point: 5°C
Humidity: 82%
Barometer: 1009 hPa
Clouds: Mostly cloudy
Visibility: 6 miles , 10 km
Cloud details: Few Clouds 640 m
Partly cloudy 1372 m
Mostly cloudy 2438 m
2020/06/04 00:50 EGQS 040050Z 32009KT 9999 FEW021 SCT045 BKN080 08/05 Q1009 RMK BLU
EGPO - Stornoway, United Kingdom
Distance from station: NNW 111mi, 179km
Updated: 04/06/2020 01:50
Light drizzle, Overcast
Light drizzle, Overcast
 Wind from W
Wind: W 5 mph , 7 km/h
Temperature: 9°C
Wind Chill: 8°C
Dew Point: 9°C
Humidity: 100%
Barometer: 1009 hPa
Summary: Light Drizzle
Clouds: Overcast
Visibility: 3 miles , 5 km
Cloud details: Mostly cloudy 61 m
Mostly cloudy 396 m
Overcast 701 m
2020/06/04 00:50 EGPO 040050Z AUTO 26004KT 5000 -DZ BKN002/// BKN013/// OVC023/// 09/09 Q1009 REDZ
 
EGPD - Aberdeen/Dyce, United Kingdom
Distance from station: ENE 118mi, 190km
Updated: 04/06/2020 01:50
Partly cloudy
Partly cloudy
 Wind from WNW
Wind: WNW 8 mph , 13 km/h
Temperature: 7°C
Wind Chill: 5°C
Dew Point: 5°C
Humidity: 87%
Barometer: 1009 hPa
Clouds: Partly cloudy
Visibility: 6 miles , 10 km
Cloud details: Few Clouds 853 m
Partly cloudy 1494 m
2020/06/04 00:50 EGPD 040050Z AUTO 30007KT 9999 FEW028 SCT049 07/05 Q1009 NOSIG
EGAE - Eglinton/Londond, United Kingdom
Distance from station: SSW 138mi, 222km
Updated: 03/06/2020 17:20
NOT Current
Partly cloudy
Partly cloudy
 Wind from N
Wind: N 17 mph , 28 km/h
Temperature: 14°C
Dew Point: 5°C
Humidity: 55%
Barometer: 1017 hPa
Clouds: Partly cloudy
Visibility: 6 miles , 10 km
Cloud details: Partly cloudy 1128 m
2020/06/03 16:20 EGAE 031620Z 36015KT 9999 SCT037 14/05 Q1017
EGPC - Wick, United Kingdom
Distance from station: NNE 144mi, 232km
Updated: 04/06/2020 01:50
Mostly cloudy
Mostly cloudy
 Wind from WNW
Wind: WNW 5 mph , 7 km/h
Temperature: 6°C
Wind Chill: 4°C
Dew Point: 5°C
Humidity: 93%
Barometer: 1009 hPa
Clouds: Mostly cloudy
Visibility: 6 miles , 10 km
Cloud details: Mostly cloudy 1097 m
2020/06/04 00:50 EGPC 040050Z AUTO 29004KT 9999 BKN036/// 06/05 Q1009

Metar display script from Saratoga-Weather.org